Time;durP1;ratioP1;P1;durP2;ratioP2;P2;SDS_P1;SDS_P2;PMS_P1;PMS_P2;Temp;Humidity;BMP_temperature;BMP_pressure;BME280_temperature;BME280_humidity;BME280_pressure;Samples;Min_cycle;Max_cycle;Signal;HPM_P1;HPM_P2
2021/09/29 00:00:47;;;;;;;30.77;11.00;;;;;;;6.14;86.17;101317.34;5029790;28;20202;-76
2021/09/29 00:03:12;;;;;;;30.23;11.00;;;;;;;6.13;86.37;101320.75;5029591;28;20076;-74
2021/09/29 00:05:38;;;;;;;32.72;11.15;;;;;;;6.03;86.39;101307.75;5029344;28;20048;-75
2021/09/29 00:08:08;;;;;;;32.88;11.07;;;;;;;5.95;86.84;101294.78;5029043;28;20045;-76
2021/09/29 00:10:33;;;;;;;30.40;11.55;;;;;;;6.12;86.42;101323.34;5063736;28;20140;-74
2021/09/29 00:12:59;;;;;;;27.17;10.40;;;;;;;5.99;86.90;101300.81;5039588;28;20045;-75
2021/09/29 00:15:25;;;;;;;32.42;11.85;;;;;;;6.13;86.98;101325.06;5041352;28;20037;-75
2021/09/29 00:17:51;;;;;;;27.67;10.88;;;;;;;6.10;87.19;101322.47;5029717;28;20044;-77
2021/09/29 00:20:17;;;;;;;29.90;10.75;;;;;;;6.04;86.99;101319.81;5031064;28;20044;-76
2021/09/29 00:22:43;;;;;;;33.67;10.75;;;;;;;6.00;86.89;101323.22;5036153;28;20199;-76
2021/09/29 00:25:11;;;;;;;31.30;11.90;;;;;;;6.06;87.39;101329.31;5044456;28;20052;-75
2021/09/29 00:27:37;;;;;;;28.45;10.50;;;;;;;5.94;86.91;101306.81;5030409;28;20042;-73
2021/09/29 00:30:06;;;;;;;26.15;10.27;;;;;;;6.01;87.07;101330.97;5048575;28;20106;-73
2021/09/29 00:32:37;;;;;;;25.92;9.48;;;;;;;6.00;86.94;101330.97;5044640;28;20539;-73
2021/09/29 00:35:03;;;;;;;34.78;9.90;;;;;;;5.97;87.38;101326.63;5032865;28;20057;-73
2021/09/29 00:37:28;;;;;;;27.15;9.95;;;;;;;5.81;87.25;101301.47;5038073;28;20113;-72
2021/09/29 00:39:54;;;;;;;31.25;10.15;;;;;;;5.99;87.24;101329.22;5027037;28;20063;-74
2021/09/29 00:42:20;;;;;;;23.33;10.15;;;;;;;5.88;87.33;101317.06;5029094;28;20059;-72
2021/09/29 00:44:46;;;;;;;35.88;10.65;;;;;;;5.97;87.28;101336.94;5029103;28;20049;-72
2021/09/29 00:47:12;;;;;;;31.42;9.63;;;;;;;5.97;87.08;101330.94;5029082;28;20037;-73
2021/09/29 00:49:38;;;;;;;37.22;10.43;;;;;;;5.97;87.58;101333.53;5027595;28;20040;-72
2021/09/29 00:52:05;;;;;;;34.75;10.25;;;;;;;5.95;87.50;101330.91;5029483;28;20076;-73
2021/09/29 00:54:31;;;;;;;35.80;10.35;;;;;;;5.86;87.53;101318.72;5011503;28;20045;-73
2021/09/29 00:56:57;;;;;;;40.70;11.15;;;;;;;5.93;86.94;101330.88;5028157;28;20057;-73
2021/09/29 00:59:23;;;;;;;43.80;11.50;;;;;;;5.93;87.52;101330.88;5029064;28;20033;-73
2021/09/29 01:01:51;;;;;;;30.88;9.95;;;;;;;5.86;87.28;101312.72;5029018;28;20453;-74
2021/09/29 01:04:18;;;;;;;36.88;9.68;;;;;;;5.92;87.02;101325.69;5029302;28;20083;-75
2021/09/29 01:06:50;;;;;;;27.15;9.43;;;;;;;5.92;87.24;101325.69;5029313;28;20089;-73
2021/09/29 01:09:24;;;;;;;37.58;10.63;;;;;;;5.85;87.09;101310.97;5028477;28;20132;-73
2021/09/29 01:12:05;;;;;;;35.63;10.05;;;;;;;5.93;87.34;101330.03;5011358;28;20037;-75
2021/09/29 01:14:50;;;;;;;30.83;9.77;;;;;;;5.92;88.14;101330.84;5017955;28;20057;-74
2021/09/29 01:17:33;;;;;;;36.78;9.80;;;;;;;5.91;87.92;101326.56;5029432;28;20041;-75
2021/09/29 01:20:24;;;;;;;29.88;9.60;;;;;;;5.92;87.46;101329.16;5024664;28;20029;-75
2021/09/29 01:23:07;;;;;;;31.83;10.85;;;;;;;5.91;88.06;101331.75;5023031;28;20053;-78
2021/09/29 01:25:53;;;;;;;25.88;10.02;;;;;;;5.91;88.02;101324.81;5046361;28;20061;-75
2021/09/29 01:28:20;;;;;;;37.25;9.68;;;;;;;5.92;87.34;101330.84;5010494;28;20104;-75
2021/09/29 01:30:46;;;;;;;24.17;8.80;;;;;;;5.84;87.95;101322.16;5028717;28;20046;-76
2021/09/29 01:33:12;;;;;;;25.45;8.98;;;;;;;5.91;87.82;101330.00;5033311;28;20041;-76
2021/09/29 01:35:38;;;;;;;22.65;9.40;;;;;;;5.91;87.81;101326.56;5031899;28;20037;-76
2021/09/29 01:38:05;;;;;;;22.10;9.07;;;;;;;5.92;87.54;101328.28;5031824;28;20038;-76
2021/09/29 01:40:31;;;;;;;22.10;9.23;;;;;;;5.84;88.18;101315.28;5032326;28;20045;-75
2021/09/29 01:42:58;;;;;;;25.58;9.75;;;;;;;5.92;88.15;101325.69;5033502;28;20045;-75
2021/09/29 01:45:24;;;;;;;23.35;8.75;;;;;;;5.92;88.25;101323.13;5047818;28;20572;-75
2021/09/29 01:47:50;;;;;;;24.60;9.05;;;;;;;5.75;88.39;101293.66;5048418;28;20140;-74
2021/09/29 01:50:22;;;;;;;20.52;8.77;;;;;;;5.91;87.69;101318.84;5030021;28;20053;-73
2021/09/29 01:52:49;;;;;;;21.67;10.50;;;;;;;5.77;88.02;101297.97;5022795;28;20041;-73
2021/09/29 01:55:17;;;;;;;19.10;9.45;;;;;;;5.88;87.81;101318.78;5015047;28;20052;-74
2021/09/29 01:57:43;;;;;;;20.92;8.98;;;;;;;5.80;88.22;101315.22;5028100;28;20034;-72
2021/09/29 02:00:10;;;;;;;26.98;9.63;;;;;;;5.84;88.18;101325.59;5012786;28;20041;-74
2021/09/29 02:02:40;;;;;;;24.33;10.10;;;;;;;5.82;88.35;101334.16;5029254;28;20505;-74
2021/09/29 02:05:06;;;;;;;22.33;9.30;;;;;;;5.79;87.80;101327.25;5031350;28;20037;-73
2021/09/29 02:07:33;;;;;;;23.63;9.43;;;;;;;5.79;88.13;101329.84;5032587;28;20037;-73
2021/09/29 02:09:59;;;;;;;31.40;10.07;;;;;;;5.78;87.80;101329.81;5048147;28;20112;-75
2021/09/29 02:12:24;;;;;;;25.02;9.85;;;;;;;5.77;87.81;101333.25;5028660;28;20490;-75
2021/09/29 02:14:50;;;;;;;19.48;10.13;;;;;;;5.74;87.42;101326.34;5030423;28;20104;-75
2021/09/29 02:17:17;;;;;;;23.65;9.63;;;;;;;5.65;87.84;101313.34;5011530;28;20501;-74
2021/09/29 02:19:46;;;;;;;23.50;9.55;;;;;;;5.73;87.21;101326.31;5012864;28;20046;-75
2021/09/29 02:22:16;;;;;;;24.15;10.60;;;;;;;5.74;87.34;101331.50;5012767;28;20454;-76
2021/09/29 02:24:43;;;;;;;24.23;10.02;;;;;;;5.72;87.65;101333.19;5012425;28;20077;-75
2021/09/29 02:27:09;;;;;;;23.50;9.77;;;;;;;5.69;87.38;101321.97;5044336;28;20041;-72
2021/09/29 02:29:35;;;;;;;22.40;10.90;;;;;;;5.68;87.03;101323.69;5031704;28;20053;-74
2021/09/29 02:32:00;;;;;;;20.92;10.65;;;;;;;5.69;87.29;101325.44;5031440;28;20045;-75
2021/09/29 02:34:26;;;;;;;27.33;11.45;;;;;;;5.68;87.36;101326.28;5031870;28;20045;-75
2021/09/29 02:36:52;;;;;;;25.75;11.15;;;;;;;5.68;87.37;101317.66;5025734;28;20052;-75
2021/09/29 02:39:17;;;;;;;24.65;11.98;;;;;;;5.70;87.13;101324.59;5026468;28;20053;-75
2021/09/29 02:41:43;;;;;;;21.50;10.55;;;;;;;5.59;87.22;101308.09;5012497;28;20049;-76
2021/09/29 02:44:11;;;;;;;21.38;12.00;;;;;;;5.66;87.45;101316.75;5044323;28;20135;-77
2021/09/29 02:46:38;;;;;;;23.83;11.82;;;;;;;5.64;87.35;101315.91;5031659;28;20107;-77
2021/09/29 02:49:04;;;;;;;21.83;11.93;;;;;;;5.64;87.55;101310.75;5047254;28;20037;-75
2021/09/29 02:51:30;;;;;;;22.55;11.30;;;;;;;5.64;87.43;101318.47;5032237;28;20064;-76
2021/09/29 02:53:57;;;;;;;19.05;10.95;;;;;;;5.65;87.55;101317.63;5029738;28;20064;-77
2021/09/29 02:56:23;;;;;;;27.92;12.55;;;;;;;5.64;87.81;101316.75;5030632;28;20041;-75
2021/09/29 02:58:49;;;;;;;22.10;12.07;;;;;;;5.62;87.38;101313.28;5031811;28;20045;-75
2021/09/29 03:01:15;;;;;;;23.90;12.02;;;;;;;5.64;88.07;101321.06;5030535;28;20562;-76
2021/09/29 03:03:41;;;;;;;24.08;12.00;;;;;;;5.61;87.61;101313.25;5029995;28;20045;-75
2021/09/29 03:06:06;;;;;;;21.45;11.38;;;;;;;5.62;87.43;101327.91;5031519;28;20067;-75
2021/09/29 03:08:32;;;;;;;25.85;12.50;;;;;;;5.60;87.64;101325.28;5030560;28;20406;-75
2021/09/29 03:11:01;;;;;;;24.98;11.80;;;;;;;5.62;87.76;101320.16;5031505;28;20077;-74
2021/09/29 03:13:26;;;;;;;24.00;12.40;;;;;;;5.65;87.88;101326.25;5017365;28;20425;-74
2021/09/29 03:15:52;;;;;;;26.85;11.85;;;;;;;5.64;87.72;101328.81;5011614;28;20038;-75
2021/09/29 03:18:18;;;;;;;24.17;11.15;;;;;;;5.65;87.26;101322.78;5011407;28;20038;-73
2021/09/29 03:20:44;;;;;;;25.75;11.23;;;;;;;5.58;86.94;101311.53;5027142;28;20599;-73
2021/09/29 03:23:10;;;;;;;33.47;12.63;;;;;;;5.68;87.33;101331.44;5045154;28;20045;-74
2021/09/29 03:25:35;;;;;;;28.92;11.63;;;;;;;5.68;86.98;101338.31;5013347;28;20041;-74
2021/09/29 03:28:01;;;;;;;23.17;11.20;;;;;;;5.52;86.98;101308.88;5029368;28;20120;-75
2021/09/29 03:30:27;;;;;;;24.50;11.88;;;;;;;5.67;86.76;101327.13;5030048;28;20097;-75
2021/09/29 03:32:53;;;;;;;25.75;12.93;;;;;;;5.71;87.17;101340.91;5031717;28;20041;-75
2021/09/29 03:35:19;;;;;;;26.90;11.65;;;;;;;5.72;87.14;101324.56;5029912;28;20064;-76
2021/09/29 03:37:45;;;;;;;33.35;11.65;;;;;;;5.57;87.43;101303.75;5036716;28;20033;-73
2021/09/29 03:40:13;;;;;;;25.60;12.32;;;;;;;5.79;87.61;101334.13;5031106;28;20393;-75
2021/09/29 03:42:38;;;;;;;26.00;11.35;;;;;;;5.82;87.01;101335.03;5031201;28;20045;-74
2021/09/29 03:45:06;;;;;;;25.77;12.20;;;;;;;5.78;87.18;101327.25;5030507;28;20045;-74
2021/09/29 03:47:33;;;;;;;24.30;11.52;;;;;;;5.81;86.95;101338.44;5030731;28;20063;-73
2021/09/29 03:49:59;;;;;;;27.02;11.45;;;;;;;5.86;87.19;101343.69;5028732;28;20132;-73
2021/09/29 03:52:25;;;;;;;26.25;12.27;;;;;;;5.88;86.40;101336.84;5029124;28;20049;-74
2021/09/29 03:54:51;;;;;;;26.45;11.75;;;;;;;5.92;86.87;101347.22;5030351;28;20064;-72
2021/09/29 03:57:17;;;;;;;21.70;11.25;;;;;;;5.87;86.60;101328.22;5029427;28;20045;-74
2021/09/29 03:59:43;;;;;;;23.13;11.40;;;;;;;6.02;86.57;101349.94;5030548;28;20131;-74
2021/09/29 04:02:09;;;;;;;23.55;11.27;;;;;;;6.08;86.60;101358.59;5030657;28;20045;-74
2021/09/29 04:04:34;;;;;;;20.50;11.10;;;;;;;6.13;86.67;101348.28;5029726;28;20049;-73
2021/09/29 04:07:00;;;;;;;23.08;10.73;;;;;;;6.18;86.55;101357.81;5030050;28;20037;-73
2021/09/29 04:09:26;;;;;;;24.13;10.18;;;;;;;6.22;86.23;101357.03;5029172;28;20183;-74
2021/09/29 04:11:52;;;;;;;24.48;11.05;;;;;;;6.17;85.72;101340.63;5028164;28;20041;-72
2021/09/29 04:14:20;;;;;;;24.40;11.70;;;;;;;6.29;85.38;101353.63;5010408;28;20078;-72
2021/09/29 04:16:49;;;;;;;27.92;11.70;;;;;;;6.35;85.03;101358.88;5010703;28;20034;-72
2021/09/29 04:19:15;;;;;;;23.95;11.45;;;;;;;6.27;85.26;101339.84;5010930;28;20034;-72
2021/09/29 04:21:41;;;;;;;27.52;11.77;;;;;;;6.46;84.40;101358.09;5009286;28;20179;-74
2021/09/29 04:24:09;;;;;;;30.35;12.63;;;;;;;6.50;84.90;101354.69;5025275;28;20618;-74
2021/09/29 04:26:35;;;;;;;26.00;12.40;;;;;;;6.55;84.63;101356.47;5019107;28;20041;-74
2021/09/29 04:29:01;;;;;;;35.42;12.80;;;;;;;6.61;84.17;101361.69;5011126;28;20180;-75
2021/09/29 04:31:26;;;;;;;33.88;11.95;;;;;;;6.54;83.92;101334.03;5020557;28;20064;-65
2021/09/29 04:33:52;;;;;;;26.15;10.65;;;;;;;6.71;83.81;101366.06;5028784;28;20045;-64
2021/09/29 04:36:18;;;;;;;26.10;11.73;;;;;;;6.75;83.70;101360.06;5029630;28;20049;-65
2021/09/29 04:38:43;;;;;;;47.70;14.60;;;;;;;6.78;83.58;101367.00;5028415;28;20053;-74
2021/09/29 04:41:09;;;;;;;27.15;11.35;;;;;;;6.85;83.40;101361.03;5030894;28;20041;-74
2021/09/29 04:43:35;;;;;;;24.88;11.38;;;;;;;6.93;82.82;101358.50;5029982;28;20056;-72
2021/09/29 04:46:01;;;;;;;28.30;12.25;;;;;;;6.90;82.38;101341.25;5029113;28;20045;-74
2021/09/29 04:48:27;;;;;;;34.42;11.70;;;;;;;7.07;82.36;101356.84;5038264;28;20148;-73
2021/09/29 04:50:53;;;;;;;29.23;10.93;;;;;;;7.14;82.09;101356.91;5027561;28;20111;-72
2021/09/29 04:53:19;;;;;;;31.83;11.82;;;;;;;7.20;81.68;101361.25;5031158;28;20060;-74
2021/09/29 04:55:45;;;;;;;27.35;11.52;;;;;;;7.29;81.37;101358.72;5027604;28;20045;-71
2021/09/29 04:58:11;;;;;;;21.08;9.50;;;;;;;7.35;81.45;101360.47;5028356;28;20049;-72
2021/09/29 05:00:37;;;;;;;23.65;9.90;;;;;;;7.43;80.84;101366.59;5028275;28;20124;-70
2021/09/29 05:03:06;;;;;;;23.55;10.75;;;;;;;7.43;80.45;101353.66;5027948;28;20540;-70
2021/09/29 05:05:33;;;;;;;;;;;;;;;7.55;80.45;101366.63;5032203;28;20047;-71
2021/09/29 05:08:00;;;;;;;20.02;8.30;;;;;;;7.58;79.93;101364.94;5026937;28;19968;-70
2021/09/29 05:10:45;;;;;;;22.88;9.70;;;;;;;7.66;79.75;101365.81;5028040;28;20045;-62
2021/09/29 05:13:17;;;;;;;23.08;10.00;;;;;;;7.78;79.35;101369.31;5039498;28;20052;-65
2021/09/29 05:15:43;;;;;;;17.55;9.32;;;;;;;7.89;79.09;101362.47;5027250;28;20495;-65
2021/09/29 05:18:09;;;;;;;22.52;9.57;;;;;;;8.03;78.61;101361.66;5028561;28;20041;-72
2021/09/29 05:20:35;;;;;;;24.95;10.13;;;;;;;8.19;77.95;101370.31;5027852;28;20143;-67
2021/09/29 05:23:01;;;;;;;21.98;9.55;;;;;;;8.37;77.27;101367.78;5028412;28;20556;-63
2021/09/29 05:25:27;;;;;;;18.48;9.25;;;;;;;8.46;76.87;101349.69;5034313;28;20159;-69
2021/09/29 05:27:53;;;;;;;23.77;9.45;;;;;;;8.67;75.97;101354.00;5039530;28;20045;-67
2021/09/29 05:30:19;;;;;;;21.92;9.18;;;;;;;8.98;75.61;101362.63;5027231;28;20041;-68
2021/09/29 05:32:45;;;;;;;21.40;9.13;;;;;;;9.28;74.13;101357.38;5035179;28;20491;-72
2021/09/29 05:35:10;;;;;;;21.65;8.68;;;;;;;9.72;72.65;101361.59;5034120;28;20045;-73
2021/09/29 05:37:36;;;;;;;20.20;8.20;;;;;;;10.30;70.32;101359.59;5034411;28;20117;-72
2021/09/29 05:40:02;;;;;;;27.13;8.93;;;;;;;11.08;67.32;101371.97;5009171;28;20046;-72
2021/09/29 05:42:29;;;;;;;22.95;7.82;;;;;;;11.71;64.29;101371.28;5032235;28;20090;-71
2021/09/29 05:44:55;;;;;;;25.77;8.60;;;;;;;12.17;62.68;101366.34;5026786;28;20505;-69
2021/09/29 05:47:21;;;;;;;22.90;8.75;;;;;;;12.59;61.24;101370.09;5028793;28;20107;-69
2021/09/29 05:49:46;;;;;;;22.77;8.10;;;;;;;13.12;59.45;101369.22;5022532;28;20086;-71
2021/09/29 05:52:12;;;;;;;17.55;7.18;;;;;;;13.57;57.41;101340.47;5026912;28;20155;-70
2021/09/29 05:54:38;;;;;;;29.13;13.52;;;;;;;14.29;55.42;101358.97;5037956;28;20041;-73
2021/09/29 05:57:04;;;;;;;21.55;8.10;;;;;;;14.82;53.41;101341.13;5048732;28;20573;-74
2021/09/29 05:59:30;;;;;;;16.08;7.60;;;;;;;15.37;52.09;101358.91;5041952;28;20401;-70
2021/09/29 06:01:56;;;;;;;16.20;7.80;;;;;;;15.83;50.72;101368.13;5029679;28;20048;-66
2021/09/29 06:04:21;;;;;;;17.75;8.63;;;;;;;16.24;49.94;101367.75;5011821;28;20365;-68
2021/09/29 06:06:47;;;;;;;16.52;7.78;;;;;;;16.54;48.69;101364.16;5038486;28;20053;-64
2021/09/29 06:09:13;;;;;;;16.20;6.30;;;;;;;16.92;47.83;101368.19;5038610;28;20045;-63
2021/09/29 06:11:39;;;;;;;31.55;6.80;;;;;;;17.29;46.45;101359.88;5022010;28;20046;-70
2021/09/29 06:14:06;;;;;;;16.13;6.70;;;;;;;17.71;45.35;101364.53;5027905;28;20045;-68
2021/09/29 06:16:41;;;;;;;13.50;6.75;;;;;;;18.20;44.03;101371.44;5059269;28;20194;-72
2021/09/29 06:19:08;;;;;;;18.20;7.07;;;;;;;18.58;43.07;101365.53;5028211;28;20041;-71
2021/09/29 06:21:34;;;;;;;12.57;7.18;;;;;;;19.01;42.11;101363.75;5023551;28;20137;-68
2021/09/29 06:24:00;;;;;;;21.48;12.43;;;;;;;19.62;40.95;101369.03;5019336;28;20435;-67
2021/09/29 06:26:26;;;;;;;14.85;7.53;;;;;;;20.10;40.10;101369.41;5030739;28;20041;-70
2021/09/29 06:28:52;;;;;;;15.45;6.88;;;;;;;20.26;39.54;101351.06;5032049;28;20117;-67
2021/09/29 06:31:17;;;;;;;12.25;7.22;;;;;;;20.49;39.05;101369.34;5030673;28;20041;-69
2021/09/29 06:33:45;;;;;;;16.02;7.38;;;;;;;20.73;38.88;101368.13;5031456;28;20178;-70
2021/09/29 06:36:10;;;;;;;17.13;7.25;;;;;;;20.81;38.68;101374.84;5032447;28;20036;-70
2021/09/29 06:38:36;;;;;;;14.25;7.80;;;;;;;20.93;37.85;101366.28;5031286;28;20129;-69
2021/09/29 06:41:02;;;;;;;17.10;8.10;;;;;;;20.90;38.00;101366.44;5030315;28;20080;-66
2021/09/29 06:43:28;;;;;;;16.45;7.90;;;;;;;21.10;37.66;101364.50;5031542;28;20041;-69
2021/09/29 06:45:54;;;;;;;14.82;8.23;;;;;;;21.37;37.34;101367.53;5026479;28;20061;-57
2021/09/29 06:48:20;;;;;;;14.20;8.07;;;;;;;21.59;37.01;101366.41;5027754;28;20033;-52
2021/09/29 06:50:45;;;;;;;19.70;8.32;;;;;;;22.13;36.02;101368.75;5012919;28;20037;-56
2021/09/29 06:53:18;;;;;;;18.60;10.30;;;;;;;22.75;34.73;101369.66;5029384;28;20045;-50
2021/09/29 06:55:46;;;;;;;18.50;8.32;;;;;;;23.22;33.99;101367.69;5030826;28;20041;-56
2021/09/29 06:58:11;;;;;;;13.55;8.20;;;;;;;23.50;33.52;101366.91;5030672;28;20042;-56
2021/09/29 07:00:37;;;;;;;17.73;9.73;;;;;;;23.77;32.82;101363.47;5041552;28;20107;-54
2021/09/29 07:03:03;;;;;;;20.02;9.07;;;;;;;24.10;32.44;101364.00;5021025;28;20053;-55
2021/09/29 07:05:29;;;;;;;16.08;9.27;;;;;;;24.58;31.73;101367.13;5011698;28;20042;-55
2021/09/29 07:07:55;;;;;;;18.73;8.95;;;;;;;25.11;30.83;101374.22;5011541;28;20796;-56
2021/09/29 07:10:22;;;;;;;17.45;8.82;;;;;;;25.57;30.01;101372.78;5018277;28;20045;-52
2021/09/29 07:12:48;;;;;;;19.70;8.35;;;;;;;25.88;29.67;101371.47;5021241;28;20559;-54
2021/09/29 07:15:14;;;;;;;15.60;9.27;;;;;;;26.18;29.11;101371.06;5011172;28;20037;-54
2021/09/29 07:17:40;;;;;;;18.08;10.63;;;;;;;26.32;28.68;101368.28;5010351;28;20049;-55
2021/09/29 07:20:11;;;;;;;18.30;8.20;;;;;;;26.45;28.60;101373.56;5026130;28;20615;-54
2021/09/29 07:22:38;;;;;;;25.98;9.65;;;;;;;26.30;28.67;101369.34;5011872;28;20052;-56
2021/09/29 07:25:04;;;;;;;20.55;9.65;;;;;;;25.78;28.96;101369.56;5026388;28;20042;-56
2021/09/29 07:27:30;;;;;;;18.73;9.02;;;;;;;25.20;29.76;101368.28;5009620;28;20524;-55
2021/09/29 07:29:55;;;;;;;21.67;8.65;;;;;;;24.87;30.10;101361.59;5011138;28;20069;-52
2021/09/29 07:32:21;;;;;;;15.00;7.80;;;;;;;24.30;30.95;101360.97;5010666;28;20052;-53
2021/09/29 07:34:47;;;;;;;21.48;9.93;;;;;;;24.10;31.31;101358.69;5033027;28;20049;-55
2021/09/29 07:37:13;;;;;;;16.70;7.85;;;;;;;24.23;30.97;101356.16;5030604;28;20065;-55
2021/09/29 07:39:39;;;;;;;16.00;7.65;;;;;;;24.47;30.62;101355.41;5030805;28;20037;-55
2021/09/29 07:42:05;;;;;;;13.93;7.20;;;;;;;24.42;30.85;101351.34;5030859;28;20540;-55
2021/09/29 07:44:30;;;;;;;22.65;10.27;;;;;;;24.75;30.27;101349.13;5030665;28;20464;-55
2021/09/29 07:46:56;;;;;;;17.67;7.60;;;;;;;24.85;29.79;101347.53;5030639;28;20096;-56
2021/09/29 07:49:22;;;;;;;15.20;6.60;;;;;;;25.04;29.56;101352.50;5017735;28;20053;-52
2021/09/29 07:51:51;;;;;;;15.68;6.85;;;;;;;25.32;29.13;101356.78;5025905;28;20156;-57
2021/09/29 07:54:17;;;;;;;15.18;6.28;;;;;;;25.30;29.11;101350.69;5010914;28;20037;-56
2021/09/29 07:56:43;;;;;;;14.50;5.60;;;;;;;25.29;29.21;101341.84;5010396;28;20045;-55
2021/09/29 07:59:08;;;;;;;14.43;6.90;;;;;;;25.01;28.87;101339.41;5010924;28;20444;-55
2021/09/29 08:01:34;;;;;;;15.02;8.32;;;;;;;24.66;29.53;101346.19;5023579;28;20044;-55
2021/09/29 08:04:00;;;;;;;18.33;6.72;;;;;;;25.20;28.99;101352.28;5014820;28;20501;-54
2021/09/29 08:06:25;;;;;;;16.30;6.18;;;;;;;25.73;28.10;101345.91;5010728;28;20092;-53
2021/09/29 08:08:53;;;;;;;17.52;6.63;;;;;;;26.11;27.62;101351.16;5010567;28;20034;-53
2021/09/29 08:11:18;;;;;;;17.60;6.97;;;;;;;26.41;27.43;101346.28;5010681;28;20472;-53
2021/09/29 08:13:44;;;;;;;14.15;9.02;;;;;;;26.33;27.34;101353.13;5010469;28;20042;-56
2021/09/29 08:16:10;;;;;;;14.82;7.53;;;;;;;25.93;27.94;101350.66;5013395;28;20049;-56
2021/09/29 08:18:36;;;;;;;10.77;5.25;;;;;;;25.65;28.31;101343.78;5029909;28;20076;-53
2021/09/29 08:21:03;;;;;;;12.48;5.38;;;;;;;25.73;28.13;101352.09;5029039;28;20512;-55
2021/09/29 08:23:32;;;;;;;12.30;5.40;;;;;;;25.94;27.85;101354.19;5030038;28;20558;-54
2021/09/29 08:28:52;;;;;;;28.25;14.73;;;;;;;25.66;27.93;101328.66;5017054;28;20041;-56
2021/09/29 08:38:50;;;;;;;12.88;5.63;;;;;;;27.08;26.40;101343.88;5028368;28;20037;-55
2021/09/29 08:43:54;;;;;;;9.43;6.20;;;;;;;28.01;25.83;101342.69;5029857;28;20045;-55
2021/09/29 08:46:31;;;;;;;13.88;5.78;;;;;;;28.50;25.01;101333.38;5011333;28;20049;-56
2021/09/29 08:49:06;;;;;;;;;;;;;;;28.47;24.84;101336.31;5024110;28;20058;-57
2021/09/29 09:18:27;;;;;;;12.70;5.93;;;;;;;28.13;25.33;101322.16;5009770;28;20038;-54
2021/09/29 09:21:02;;;;;;;12.38;6.65;;;;;;;28.33;24.76;101320.53;5009756;28;20038;-54
2021/09/29 09:23:37;;;;;;;8.30;5.00;;;;;;;28.23;24.43;101323.13;5009471;28;20052;-53
2021/09/29 09:26:22;;;;;;;11.32;5.22;;;;;;;27.81;24.97;101322.94;5010749;28;20518;-54
2021/09/29 09:28:50;;;;;;;9.43;5.40;;;;;;;28.41;24.60;101321.63;5022207;28;20072;-54
2021/09/29 09:31:20;;;;;;;10.43;5.32;;;;;;;28.87;23.92;101318.63;5029011;28;20463;-55
2021/09/29 09:33:53;;;;;;;12.02;6.47;;;;;;;28.61;24.19;101323.47;5027688;28;20558;-55
2021/09/29 09:36:41;;;;;;;7.57;5.07;;;;;;;26.77;25.90;101315.13;5027919;28;20045;-54
2021/09/29 09:39:13;;;;;;;6.97;4.38;;;;;;;26.69;26.10;101318.38;5028217;28;20061;-53
2021/09/29 09:41:59;;;;;;;6.35;3.90;;;;;;;27.32;25.06;101311.75;5032336;28;20111;-56
2021/09/29 09:44:37;;;;;;;6.07;4.03;;;;;;;27.75;24.71;101314.53;5032518;28;20124;-55
2021/09/29 09:47:06;;;;;;;6.00;3.90;;;;;;;28.04;24.12;101314.88;5048037;28;20045;-56
2021/09/29 09:49:55;;;;;;;6.63;4.40;;;;;;;28.34;24.08;101303.50;5031332;28;20100;-55
2021/09/29 09:52:44;;;;;;;10.90;4.95;;;;;;;28.45;24.07;101304.31;5032133;28;20084;-54
2021/09/29 09:55:15;;;;;;;8.70;3.88;;;;;;;28.29;24.23;101311.06;5033003;28;20068;-56
2021/09/29 09:57:42;;;;;;;7.05;4.88;;;;;;;28.07;24.45;101301.25;5031373;28;20076;-56
2021/09/29 10:00:13;;;;;;;7.32;3.80;;;;;;;27.62;24.51;101306.69;5031270;28;20324;-55
2021/09/29 10:02:41;;;;;;;8.52;4.20;;;;;;;27.51;24.78;101298.66;5032704;28;20052;-57
2021/09/29 10:05:11;;;;;;;9.50;5.53;;;;;;;27.71;24.83;101297.06;5031160;28;20566;-57
2021/09/29 10:07:37;;;;;;;6.15;4.13;;;;;;;28.30;24.22;101302.06;5031986;28;20037;-54
2021/09/29 10:10:10;;;;;;;11.57;4.97;;;;;;;27.77;24.66;101300.09;5016076;28;20064;-55
2021/09/29 10:27:21;;;;;;;16.17;12.35;;;;;;;23.95;29.27;101303.88;4999981;28;20095;-54
2021/09/29 10:29:55;;;;;;;6.85;4.75;;;;;;;24.41;28.69;101299.97;5012209;28;20074;-58
2021/09/29 10:32:24;;;;;;;12.13;5.30;;;;;;;24.64;28.23;101290.44;5027307;28;20045;-55
2021/09/29 10:43:18;;;;;;;9.40;5.30;;;;;;;23.84;29.97;101311.69;5025107;28;20045;-55
2021/09/29 11:29:52;;;;;;;7.78;5.60;;;;;;;19.29;36.69;101285.16;5042076;28;20077;-59
2021/09/29 11:33:01;;;;;;;11.63;6.13;;;;;;;18.66;37.58;101286.19;5030176;28;20093;-58
2021/09/29 11:38:32;;;;;;;9.98;5.82;;;;;;;17.73;39.33;101283.78;5015395;28;20067;-56
2021/09/29 12:08:35;;;;;;;14.10;7.22;;;;;;;14.97;45.31;101279.66;5028787;28;20037;-57
2021/09/29 12:11:08;;;;;;;11.38;5.75;;;;;;;14.78;45.79;101282.75;5029397;28;20045;-56
2021/09/29 12:13:41;;;;;;;9.52;6.10;;;;;;;14.74;46.30;101277.63;5026827;28;20048;-56
2021/09/29 12:16:26;;;;;;;8.18;5.47;;;;;;;14.81;46.37;101276.59;5025417;28;20488;-55
2021/09/29 12:19:23;;;;;;;11.65;6.05;;;;;;;14.84;46.32;101279.97;5027011;28;20052;-58
2021/09/29 12:21:51;;;;;;;14.07;5.88;;;;;;;14.92;45.94;101271.91;5028111;28;20520;-57
2021/09/29 12:24:29;;;;;;;12.50;6.40;;;;;;;14.98;45.96;101268.25;5028709;28;20136;-54
2021/09/29 12:26:58;;;;;;;13.27;5.78;;;;;;;14.91;45.92;101269.34;5027204;28;20041;-57
2021/09/29 12:29:47;;;;;;;11.63;5.85;;;;;;;14.86;46.27;101268.63;5028675;28;20064;-56
2021/09/29 12:35:15;;;;;;;14.57;7.72;;;;;;;15.10;46.10;101263.56;5027661;28;20053;-57
2021/09/29 12:37:56;;;;;;;12.65;6.25;;;;;;;15.29;45.94;101274.38;5011854;28;20034;-57
2021/09/29 12:40:43;;;;;;;9.30;5.28;;;;;;;15.36;45.36;101262.81;5028789;28;20047;-56
2021/09/29 12:43:15;;;;;;;9.88;5.28;;;;;;;15.39;45.50;101274.97;5019940;28;20049;-55
2021/09/29 12:45:43;;;;;;;9.43;5.80;;;;;;;15.34;45.04;101266.38;5008446;28;20050;-58
2021/09/29 12:48:29;;;;;;;9.30;5.43;;;;;;;15.22;45.50;101271.09;5010089;28;20050;-57
2021/09/29 12:50:59;;;;;;;12.00;5.90;;;;;;;15.16;45.47;101268.63;5019485;28;20465;-57
2021/09/29 12:53:35;;;;;;;9.43;6.00;;;;;;;15.08;45.24;101265.34;5010110;28;20077;-57
2021/09/29 12:56:11;;;;;;;8.98;5.57;;;;;;;14.93;45.59;101275.38;5010082;28;20037;-56
2021/09/29 12:58:37;;;;;;;9.82;6.18;;;;;;;14.69;46.06;101269.91;5010072;28;20552;-58
2021/09/29 13:01:21;;;;;;;16.45;5.88;;;;;;;14.46;46.51;101258.28;5011450;28;20042;-56
2021/09/29 13:03:47;;;;;;;10.00;6.30;;;;;;;14.27;46.33;101266.56;5021748;28;20045;-58
2021/09/29 13:06:13;;;;;;;7.72;5.80;;;;;;;14.09;46.99;101259.16;5025376;28;20049;-55
2021/09/29 13:08:57;;;;;;;10.73;6.40;;;;;;;14.00;47.06;101259.38;5008804;28;20061;-58
2021/09/29 13:11:23;;;;;;;20.20;8.77;;;;;;;13.89;47.46;101261.38;5009709;28;20037;-57
2021/09/29 13:13:49;;;;;;;19.27;7.10;;;;;;;13.70;47.48;101247.88;5033275;28;20052;-57
2021/09/29 13:16:14;;;;;;;15.60;7.95;;;;;;;13.62;47.97;101260.22;5011251;28;20506;-56
2021/09/29 13:38:15;;;;;;;13.25;8.00;;;;;;;12.49;50.14;101260.66;5015041;28;20041;-56
2021/09/29 13:40:43;;;;;;;18.75;8.13;;;;;;;12.28;50.71;101246.25;5043909;28;20052;-54
2021/09/29 13:43:09;;;;;;;11.77;7.88;;;;;;;12.24;50.80;101260.22;5038917;28;20083;-55
2021/09/29 13:45:36;;;;;;;16.50;9.20;;;;;;;11.95;50.88;101234.59;5044291;28;20713;-58
2021/09/29 13:48:02;;;;;;;15.20;9.13;;;;;;;12.02;51.12;101264.91;5036494;28;20405;-49
2021/09/29 13:53:13;;;;;;;14.85;9.50;;;;;;;11.91;52.08;101264.19;5038276;28;20045;-52
2021/09/29 13:55:40;;;;;;;15.02;8.43;;;;;;;11.82;52.42;101265.19;5031562;28;20045;-50
2021/09/29 13:58:17;;;;;;;18.10;9.93;;;;;;;11.77;52.30;101269.63;5032910;28;20080;-52
2021/09/29 14:01:07;;;;;;;17.63;9.95;;;;;;;11.68;52.94;101274.03;5032302;28;20397;-53
2021/09/29 14:29:57;;;;;;;22.38;11.48;;;;;;;11.18;56.08;101262.53;5037024;28;20133;-53
2021/09/29 14:35:34;;;;;;;25.83;11.85;;;;;;;11.06;56.77;101252.22;5022988;28;20441;-53
2021/09/29 14:41:03;;;;;;;25.90;12.68;;;;;;;11.05;56.80;101268.72;5031122;28;20139;-53